Time;durP1;ratioP1;P1;durP2;ratioP2;P2;SDS_P1;SDS_P2;PMS_P1;PMS_P2;Temp;Humidity;BMP_temperature;BMP_pressure;BME280_temperature;BME280_humidity;BME280_pressure;Samples;Min_cycle;Max_cycle;Signal;HPM_P1;HPM_P2
2022/01/16 00:04:05;;;;;;;59.25;28.20;;;;;;;1.90;82.07;102169.88;3590179;40;20133;-62
2022/01/16 00:04:43;;;;;;;50.72;26.60;;;;;;;1.89;82.40;102188.44;3589320;40;20051;-62
2022/01/16 00:07:08;;;;;;;49.10;26.63;;;;;;;1.78;81.62;102162.00;3591286;40;20126;-63
2022/01/16 00:09:38;;;;;;;44.53;26.48;;;;;;;1.73;81.53;102161.13;3590387;40;20066;-62
2022/01/16 00:12:06;;;;;;;48.08;27.08;;;;;;;1.56;81.70;102138.22;3590790;40;20036;-62
2022/01/16 00:14:33;;;;;;;55.38;28.08;;;;;;;1.55;82.15;102147.03;3591009;40;20055;-62
2022/01/16 00:16:59;;;;;;;49.83;27.83;;;;;;;1.83;81.98;102189.34;3590612;40;20347;-62
2022/01/16 00:19:25;;;;;;;51.25;26.95;;;;;;;1.77;80.82;102184.94;3592284;40;20066;-63
2022/01/16 00:21:51;;;;;;;47.17;26.20;;;;;;;1.75;81.61;102194.69;3589397;40;20063;-62
2022/01/16 00:24:17;;;;;;;50.95;27.33;;;;;;;1.80;81.88;102189.34;3588033;40;20424;-62
2022/01/16 00:26:43;;;;;;;50.47;27.60;;;;;;;1.83;81.65;102186.69;3592575;40;20107;-62
2022/01/16 00:29:11;;;;;;;48.92;27.58;;;;;;;1.82;81.85;102166.38;3590673;40;20079;-62
2022/01/16 00:31:39;;;;;;;46.70;25.95;;;;;;;1.83;81.67;102146.94;3592826;40;20048;-61
2022/01/16 00:34:06;;;;;;;48.25;27.92;;;;;;;1.81;81.92;102154.03;3591642;40;20371;-62
2022/01/16 00:36:32;;;;;;;53.95;29.30;;;;;;;1.83;81.92;102176.97;3591547;40;20056;-62
2022/01/16 00:38:58;;;;;;;52.90;29.63;;;;;;;1.85;82.28;102172.53;3589308;40;20132;-61
2022/01/16 00:41:25;;;;;;;51.03;27.88;;;;;;;1.91;81.84;102170.78;3593056;40;20060;-61
2022/01/16 00:43:53;;;;;;;54.47;28.48;;;;;;;1.92;82.21;102172.53;3584359;40;20054;-61
2022/01/16 00:46:21;;;;;;;55.70;29.35;;;;;;;1.91;81.58;102171.66;3592572;40;20060;-62
2022/01/16 00:48:47;;;;;;;48.85;28.73;;;;;;;1.92;82.37;102165.44;3592085;40;20077;-62
2022/01/16 00:51:14;;;;;;;50.92;27.65;;;;;;;1.82;81.87;102147.81;3590839;40;20130;-61
2022/01/16 00:53:42;;;;;;;50.75;28.73;;;;;;;1.94;82.42;102182.25;3586833;40;20298;-61
2022/01/16 00:56:08;;;;;;;50.25;28.65;;;;;;;1.94;82.06;102163.69;3588950;40;20083;-63
2022/01/16 00:58:33;;;;;;;47.97;27.25;;;;;;;1.96;81.17;102135.38;3585125;40;20295;-62
2022/01/16 01:00:59;;;;;;;50.65;28.73;;;;;;;1.95;81.50;102125.66;3591606;40;20056;-61
2022/01/16 01:03:25;;;;;;;48.45;28.08;;;;;;;1.98;81.29;102120.34;3591396;40;20059;-62
2022/01/16 01:05:52;;;;;;;50.58;28.17;;;;;;;1.98;81.93;102146.84;3591118;40;20198;-61
2022/01/16 01:08:19;;;;;;;54.35;28.17;;;;;;;1.95;81.88;102123.00;3593053;40;20067;-61
2022/01/16 01:10:48;;;;;;;55.70;29.42;;;;;;;2.01;81.92;102138.88;3592318;40;20044;-62
2022/01/16 01:13:30;;;;;;;53.38;29.40;;;;;;;2.04;81.88;102141.53;3591599;40;20693;-62
2022/01/16 01:16:02;;;;;;;58.30;30.83;;;;;;;2.06;82.54;102139.75;3591204;40;20412;-62
2022/01/16 01:18:33;;;;;;;56.78;29.92;;;;;;;2.07;81.26;102140.63;3586861;40;20056;-62
2022/01/16 01:21:02;;;;;;;58.65;30.73;;;;;;;1.97;81.40;102112.41;3592035;40;20059;-62
2022/01/16 01:23:28;;;;;;;54.00;29.75;;;;;;;2.08;82.36;102115.88;3591082;40;20308;-62
2022/01/16 01:25:53;;;;;;;55.00;29.48;;;;;;;2.08;81.02;102130.00;3591371;40;20043;-62
2022/01/16 01:28:19;;;;;;;54.95;28.83;;;;;;;2.05;81.19;102140.63;3590262;40;20063;-61
2022/01/16 01:30:46;;;;;;;56.83;28.75;;;;;;;2.04;82.32;102136.22;3588152;40;20062;-62
2022/01/16 01:33:14;;;;;;;58.38;29.38;;;;;;;2.12;81.83;102137.94;3591240;40;20095;-61
2022/01/16 01:35:42;;;;;;;59.05;30.60;;;;;;;2.12;81.74;102117.59;3590063;40;20054;-61
2022/01/16 01:38:11;;;;;;;63.70;29.20;;;;;;;2.13;81.60;102071.63;3588375;40;20060;-61
2022/01/16 01:40:40;;;;;;;60.90;30.58;;;;;;;2.13;81.66;102057.50;3589627;40;20398;-62
2022/01/16 01:51:26;;;;;;;61.47;30.38;;;;;;;2.09;81.37;102092.00;3590704;40;20059;-62
2022/01/16 01:53:55;;;;;;;61.47;29.67;;;;;;;1.89;81.54;102067.34;3591112;40;20063;-62
2022/01/16 01:56:24;;;;;;;67.35;31.60;;;;;;;1.93;81.72;102081.47;3593060;40;20060;-62
2022/01/16 01:58:58;;;;;;;64.88;29.25;;;;;;;2.02;82.34;102123.84;3591216;40;20279;-61
2022/01/16 02:01:25;;;;;;;;;;;;;;;2.03;81.82;102122.94;3584283;40;20391;-62
2022/01/16 02:03:51;;;;;;;53.85;27.30;;;;;;;1.99;81.99;102132.69;3588350;40;20281;-62
2022/01/16 02:06:25;;;;;;;57.00;26.80;;;;;;;1.97;81.96;102131.84;3589778;40;20064;-62
2022/01/16 02:08:55;;;;;;;63.97;30.17;;;;;;;1.97;82.96;102153.06;3589167;40;20060;-61
2022/01/16 02:11:27;;;;;;;60.90;29.67;;;;;;;1.93;81.99;102122.13;3580623;40;20052;-61
2022/01/16 02:28:05;;;;;;;66.25;30.25;;;;;;;1.60;82.22;102128.47;3589676;40;20059;-62
2022/01/16 02:35:44;;;;;;;61.05;30.13;;;;;;;1.77;82.41;102169.03;3589473;40;20052;-62
2022/01/16 02:38:11;;;;;;;56.40;29.80;;;;;;;1.79;82.86;102169.03;3587562;40;20052;-61
2022/01/16 02:40:43;;;;;;;62.15;32.28;;;;;;;1.81;82.89;102169.94;3589397;40;20040;-61
2022/01/16 02:43:08;;;;;;;70.32;29.45;;;;;;;1.77;82.23;102152.25;3590827;40;20400;-62
2022/01/16 02:45:37;;;;;;;62.95;32.63;;;;;;;1.81;82.50;102157.56;3587410;40;20056;-62
2022/01/16 02:48:07;;;;;;;68.30;32.58;;;;;;;1.53;82.67;102101.13;3582751;40;20055;-61
2022/01/16 02:50:36;;;;;;;76.85;33.17;;;;;;;1.80;82.94;102146.94;3590185;40;20052;-62
2022/01/16 02:53:09;;;;;;;72.95;32.92;;;;;;;1.86;82.25;102141.59;3588696;40;20346;-61
2022/01/16 02:55:40;;;;;;;67.30;32.60;;;;;;;1.89;82.58;102135.41;3623545;22;20070;-66
2022/01/16 02:58:07;;;;;;;77.93;33.90;;;;;;;1.91;83.33;102139.84;3592665;39;20063;-62
2022/01/16 03:00:33;;;;;;;75.45;34.45;;;;;;;1.91;83.34;102113.31;3593025;39;20099;-63
2022/01/16 03:02:58;;;;;;;64.55;34.20;;;;;;;1.93;82.52;102111.50;3594845;39;20062;-64
2022/01/16 03:05:24;;;;;;;69.60;32.67;;;;;;;1.97;83.81;102107.97;3588011;39;20052;-63
2022/01/16 03:07:49;;;;;;;71.80;36.15;;;;;;;2.01;82.41;102098.22;3585526;40;20082;-64
2022/01/16 03:10:35;;;;;;;75.30;35.78;;;;;;;2.01;82.26;102099.09;3590885;40;20139;-63
2022/01/16 03:13:00;;;;;;;75.25;37.05;;;;;;;2.01;82.66;102099.09;3592148;40;20055;-63
2022/01/16 03:15:27;;;;;;;74.88;37.97;;;;;;;2.03;83.31;102089.38;3591447;39;20056;-63
2022/01/16 03:23:18;;;;;;;80.78;38.03;;;;;;;2.09;82.90;102070.78;3589776;40;20054;-62
2022/01/16 03:25:46;;;;;;;72.97;36.78;;;;;;;2.21;82.36;102085.72;3592085;39;20044;-64
2022/01/16 03:28:12;;;;;;;72.65;37.70;;;;;;;2.20;82.66;102075.13;3592129;40;20087;-63
2022/01/16 03:30:38;;;;;;;72.30;36.60;;;;;;;2.28;82.47;102089.19;3589996;40;20062;-63
2022/01/16 03:33:04;;;;;;;73.25;38.15;;;;;;;2.30;82.44;102082.13;3589796;39;20055;-63
2022/01/16 03:35:30;;;;;;;75.68;37.38;;;;;;;2.15;82.21;102053.03;3591225;40;20071;-64
2022/01/16 03:37:56;;;;;;;77.88;38.53;;;;;;;2.33;82.13;102082.09;3589749;40;20095;-62
2022/01/16 03:40:22;;;;;;;78.68;38.20;;;;;;;2.36;82.48;102089.16;3586457;39;20060;-64
2022/01/16 03:42:49;;;;;;;74.47;39.67;;;;;;;2.36;82.70;102079.41;3591026;40;20051;-64
2022/01/16 03:45:16;;;;;;;75.28;38.85;;;;;;;2.41;81.80;102076.72;3590628;40;20156;-62
2022/01/16 03:47:42;;;;;;;78.07;40.55;;;;;;;2.43;82.24;102080.25;3592750;40;20054;-63
2022/01/16 03:50:09;;;;;;;71.00;38.40;;;;;;;2.44;82.09;102082.91;3589899;39;20053;-63
2022/01/16 03:52:35;;;;;;;74.70;38.35;;;;;;;2.45;82.65;102079.34;3593142;40;20348;-63
2022/01/16 03:55:02;;;;;;;68.05;39.30;;;;;;;2.49;82.51;102089.03;3585225;40;20044;-63
2022/01/16 03:57:28;;;;;;;75.63;40.50;;;;;;;2.47;81.93;102072.25;3592245;39;20110;-64
2022/01/16 03:59:54;;;;;;;72.05;39.17;;;;;;;2.51;81.94;102079.31;3587210;40;20060;-64
2022/01/16 04:02:19;;;;;;;77.75;40.90;;;;;;;2.54;82.22;102073.09;3588991;40;20059;-62
2022/01/16 04:04:45;;;;;;;78.03;40.78;;;;;;;2.55;82.08;102075.72;3588056;40;20139;-64
2022/01/16 04:07:16;;;;;;;76.20;41.10;;;;;;;2.41;82.15;102050.19;3589017;39;20202;-63
2022/01/16 04:09:42;;;;;;;70.90;39.75;;;;;;;2.60;82.43;102085.41;3589981;40;20052;-64
2022/01/16 04:12:09;;;;;;;67.40;39.10;;;;;;;2.62;81.96;102084.50;3590863;40;20095;-64
2022/01/16 04:17:16;;;;;;;70.78;41.38;;;;;;;2.68;82.13;102081.81;3589249;39;20048;-66
2022/01/16 04:19:42;;;;;;;70.28;40.42;;;;;;;2.69;81.61;102082.69;3578450;40;20114;-64
2022/01/16 04:22:08;;;;;;;66.68;39.03;;;;;;;2.65;82.17;102070.34;3585950;40;20044;-65
2022/01/16 04:24:36;;;;;;;67.32;39.70;;;;;;;2.70;81.27;102080.03;3589708;39;20317;-64
2022/01/16 04:27:03;;;;;;;69.50;40.80;;;;;;;2.67;81.31;102073.88;3590844;40;20055;-64
2022/01/16 04:29:29;;;;;;;67.82;40.30;;;;;;;2.58;82.11;102063.31;3591416;40;20371;-64
2022/01/16 04:31:55;;;;;;;65.15;39.45;;;;;;;2.72;82.22;102072.03;3587485;39;20280;-64
2022/01/16 04:34:22;;;;;;;66.07;40.08;;;;;;;2.63;81.82;102066.81;3589363;40;20050;-65
2022/01/16 04:36:47;;;;;;;72.30;40.92;;;;;;;2.73;81.69;102079.13;3590422;40;20040;-64
2022/01/16 04:39:16;;;;;;;68.47;39.80;;;;;;;2.42;81.64;102026.31;3588683;39;20298;-64
2022/01/16 04:44:27;;;;;;;65.40;40.58;;;;;;;2.75;81.98;102075.53;3591020;40;20410;-64
2022/01/16 04:46:53;;;;;;;67.60;39.60;;;;;;;2.75;81.92;102066.69;3589948;40;20072;-64
2022/01/16 04:49:20;;;;;;;63.97;40.67;;;;;;;2.77;81.81;102070.22;3586864;39;20056;-64
2022/01/16 04:51:46;;;;;;;62.55;40.10;;;;;;;2.61;82.22;102048.25;3587182;40;20040;-64
2022/01/16 04:54:13;;;;;;;66.25;39.90;;;;;;;2.62;82.08;102042.03;3589838;40;20054;-66
2022/01/16 04:56:39;;;;;;;66.45;41.92;;;;;;;2.75;82.46;102062.25;3590860;40;20160;-64
2022/01/16 04:59:05;;;;;;;68.15;41.88;;;;;;;2.75;81.92;102061.38;3591015;40;20076;-64
2022/01/16 05:01:30;;;;;;;69.03;42.95;;;;;;;2.76;81.92;102056.06;3591134;40;20090;-65
2022/01/16 05:03:56;;;;;;;65.22;40.88;;;;;;;2.77;82.56;102071.09;3591284;39;20052;-65
2022/01/16 05:06:22;;;;;;;66.53;41.78;;;;;;;2.79;82.92;102069.31;3590191;39;20063;-63
2022/01/16 05:08:48;;;;;;;67.38;40.97;;;;;;;2.80;82.56;102048.97;3588608;40;20335;-65
2022/01/16 05:11:16;;;;;;;69.60;41.72;;;;;;;2.79;82.61;102047.16;3581777;40;20068;-65
2022/01/16 05:18:54;;;;;;;74.38;42.78;;;;;;;2.83;82.50;102048.94;3589160;40;20087;-64
2022/01/16 05:21:21;;;;;;;65.90;42.92;;;;;;;2.61;83.11;102010.22;3591378;40;20058;-65
2022/01/16 05:23:47;;;;;;;73.85;44.60;;;;;;;2.87;82.44;102045.34;3587969;39;20103;-63
2022/01/16 05:26:26;;;;;;;70.60;44.00;;;;;;;2.89;82.74;102054.19;3587880;40;20197;-63
2022/01/16 05:28:51;;;;;;;73.65;45.67;;;;;;;2.89;83.14;102043.56;3590334;40;20052;-64
2022/01/16 05:31:17;;;;;;;78.43;46.60;;;;;;;2.88;82.99;102047.09;3589929;40;20060;-64
2022/01/16 05:33:43;;;;;;;73.90;45.08;;;;;;;2.93;82.84;102057.69;3590716;39;20079;-64
2022/01/16 05:36:09;;;;;;;71.10;44.33;;;;;;;2.95;83.08;102053.19;3591476;40;20050;-64
2022/01/16 05:38:35;;;;;;;73.43;45.65;;;;;;;2.97;82.78;102049.66;3591146;40;20102;-64
2022/01/16 05:41:01;;;;;;;72.13;45.17;;;;;;;2.98;82.54;102053.19;3587050;39;20052;-65
2022/01/16 05:43:26;;;;;;;72.25;45.38;;;;;;;2.99;82.87;102055.84;3590620;40;20092;-65
2022/01/16 05:45:52;;;;;;;70.07;44.67;;;;;;;3.00;82.63;102062.88;3592066;40;20058;-64
2022/01/16 05:48:17;;;;;;;80.63;48.05;;;;;;;3.03;83.28;102062.84;3589756;39;20059;-64
2022/01/16 05:50:43;;;;;;;75.95;46.55;;;;;;;3.05;82.64;102073.50;3586649;40;20294;-64
2022/01/16 05:53:09;;;;;;;75.43;46.90;;;;;;;3.07;83.05;102073.44;3587488;40;20303;-65
2022/01/16 05:55:37;;;;;;;76.60;46.78;;;;;;;3.07;82.77;102082.31;3586384;39;20055;-65
2022/01/16 05:58:07;;;;;;;78.72;46.10;;;;;;;2.87;83.18;102034.72;3589849;40;20060;-64
2022/01/16 06:00:37;;;;;;;75.53;46.58;;;;;;;3.14;82.94;102075.13;3587857;40;20590;-65
2022/01/16 06:03:04;;;;;;;78.82;47.17;;;;;;;3.15;82.77;102074.25;3590917;40;20051;-63
2022/01/16 06:05:32;;;;;;;77.47;48.25;;;;;;;2.98;83.29;102040.81;3590944;39;20071;-63
2022/01/16 06:08:00;;;;;;;77.60;49.05;;;;;;;3.20;83.26;102075.06;3584906;40;20091;-64
2022/01/16 06:10:27;;;;;;;72.47;45.22;;;;;;;3.18;82.55;102055.63;3589172;40;20157;-63
2022/01/16 06:12:54;;;;;;;79.07;48.47;;;;;;;3.11;83.00;102048.59;3585690;39;20065;-64
2022/01/16 06:15:21;;;;;;;84.97;49.70;;;;;;;3.25;83.34;102070.59;3589725;40;20314;-64
2022/01/16 06:17:48;;;;;;;83.63;49.00;;;;;;;3.28;82.95;102075.00;3588734;39;20048;-65
2022/01/16 06:20:15;;;;;;;81.05;49.08;;;;;;;3.33;82.87;102066.09;3589562;40;20079;-63
2022/01/16 06:22:42;;;;;;;77.18;48.50;;;;;;;3.35;83.31;102074.91;3591462;40;20040;-64
2022/01/16 06:25:08;;;;;;;77.82;49.75;;;;;;;3.37;83.39;102062.50;3587695;40;20079;-65
2022/01/16 06:27:35;;;;;;;77.25;46.92;;;;;;;3.41;83.09;102069.50;3588904;40;20060;-64
2022/01/16 06:30:01;;;;;;;80.55;48.63;;;;;;;3.45;83.33;102073.00;3587347;40;20121;-65
2022/01/16 06:32:27;;;;;;;80.45;49.75;;;;;;;3.47;82.85;102074.75;3591018;40;20069;-65
2022/01/16 06:34:52;;;;;;;79.00;48.47;;;;;;;3.49;83.45;102078.28;3592475;40;20052;-63
2022/01/16 06:37:18;;;;;;;82.30;50.08;;;;;;;3.54;82.91;102101.28;3589614;39;20383;-64
2022/01/16 06:39:43;;;;;;;78.38;48.42;;;;;;;3.55;83.05;102092.38;3592096;40;20098;-66
2022/01/16 06:42:09;;;;;;;79.63;49.92;;;;;;;3.62;83.29;102104.72;3591710;40;20272;-65
2022/01/16 06:44:35;;;;;;;78.75;48.70;;;;;;;3.62;83.32;102110.91;3595064;39;20056;-65
2022/01/16 06:47:00;;;;;;;79.82;49.55;;;;;;;3.67;82.87;102103.75;3593053;40;20058;-63
2022/01/16 06:49:26;;;;;;;86.00;51.80;;;;;;;3.71;83.01;102104.59;3588153;40;20114;-65
2022/01/16 06:51:52;;;;;;;79.03;48.20;;;;;;;3.72;82.93;102101.91;3589611;40;20375;-64
2022/01/16 06:54:17;;;;;;;79.28;47.33;;;;;;;3.76;82.94;102102.75;3593207;40;20059;-64
2022/01/16 06:56:43;;;;;;;81.53;49.25;;;;;;;3.76;82.90;102101.88;3593970;39;20342;-66
2022/01/16 06:59:08;;;;;;;77.07;48.33;;;;;;;3.81;82.76;102108.03;3587645;40;20045;-63
2022/01/16 07:01:34;;;;;;;70.05;45.33;;;;;;;3.85;82.79;102112.41;3593443;40;20137;-64
2022/01/16 07:04:00;;;;;;;75.72;47.03;;;;;;;3.84;82.70;102116.84;3590454;40;20284;-64
2022/01/16 07:06:25;;;;;;;75.28;45.05;;;;;;;3.86;82.45;102119.47;3593078;40;21919;-64
2022/01/16 07:08:51;;;;;;;73.05;46.03;;;;;;;3.85;82.59;102118.59;3594299;40;20052;-66
2022/01/16 07:11:16;;;;;;;73.07;47.40;;;;;;;3.89;82.26;102120.31;3591788;40;20051;-64
2022/01/16 07:13:43;;;;;;;77.15;46.78;;;;;;;3.91;82.19;102123.84;3590428;39;20349;-64
2022/01/16 07:16:09;;;;;;;69.28;45.15;;;;;;;3.93;82.34;102127.38;3588228;40;20385;-64
2022/01/16 07:18:34;;;;;;;68.43;43.38;;;;;;;3.98;82.27;102139.72;3591793;40;20100;-64
2022/01/16 07:21:00;;;;;;;67.75;42.65;;;;;;;3.99;82.34;102157.44;3592137;40;20048;-64
2022/01/16 07:23:26;;;;;;;69.22;43.10;;;;;;;4.02;81.84;102157.38;3591789;39;20070;-65
2022/01/16 07:25:52;;;;;;;67.15;41.70;;;;;;;4.05;81.93;102158.22;3592180;40;20376;-63
2022/01/16 07:28:20;;;;;;;68.55;43.03;;;;;;;4.05;81.94;102160.88;3594342;39;20052;-65
2022/01/16 07:30:47;;;;;;;66.53;40.58;;;;;;;4.08;82.01;102163.50;3591156;40;20047;-63
2022/01/16 07:33:13;;;;;;;64.72;40.42;;;;;;;4.11;81.66;102167.91;3594930;40;20046;-64
2022/01/16 07:35:39;;;;;;;68.35;40.92;;;;;;;4.12;81.50;102182.97;3592991;40;20060;-64
2022/01/16 07:38:08;;;;;;;65.30;40.40;;;;;;;4.14;81.36;102183.84;3594823;39;20044;-65
2022/01/16 07:40:36;;;;;;;69.80;40.75;;;;;;;4.17;81.65;102178.47;3587051;40;20055;-65
2022/01/16 07:43:02;;;;;;;65.53;38.83;;;;;;;4.02;81.23;102144.09;3594503;40;20375;-64
2022/01/16 07:45:28;;;;;;;63.80;38.10;;;;;;;4.22;80.96;102176.66;3594563;40;20048;-65
2022/01/16 07:47:53;;;;;;;62.00;39.30;;;;;;;4.26;81.06;102173.03;3594667;39;20062;-63
2022/01/16 07:50:20;;;;;;;60.25;38.67;;;;;;;3.95;81.44;102144.16;3594150;40;20043;-63
2022/01/16 07:52:49;;;;;;;63.13;38.25;;;;;;;4.19;81.01;102166.03;3593022;40;20044;-64
2022/01/16 07:55:17;;;;;;;52.10;35.28;;;;;;;4.37;80.93;102192.38;3589218;40;20058;-64
2022/01/16 07:57:43;;;;;;;60.45;38.80;;;;;;;4.33;81.15;102200.44;3592841;39;20044;-66
2022/01/16 08:00:10;;;;;;;60.50;37.28;;;;;;;4.31;81.16;102202.22;3593245;40;20059;-67
2022/01/16 08:02:36;;;;;;;59.28;38.78;;;;;;;4.30;81.18;102189.84;3594552;40;20052;-65
2022/01/16 08:05:02;;;;;;;61.72;38.70;;;;;;;4.37;81.32;102208.34;3589871;40;20602;-64
2022/01/16 08:07:27;;;;;;;64.35;38.70;;;;;;;3.23;81.37;102016.59;3586092;40;20057;-65
2022/01/16 08:09:53;;;;;;;58.55;38.00;;;;;;;4.41;80.82;102212.75;3593564;40;20058;-65
2022/01/16 08:12:19;;;;;;;62.22;38.05;;;;;;;4.42;81.16;102206.50;3585786;40;20286;-64
2022/01/16 08:14:44;;;;;;;62.78;38.47;;;;;;;4.43;80.88;102205.59;3589639;39;20060;-65
2022/01/16 08:17:10;;;;;;;60.08;36.85;;;;;;;4.45;81.21;102191.41;3592677;40;20060;-65
2022/01/16 08:19:36;;;;;;;63.60;39.05;;;;;;;4.50;81.21;102197.53;3590014;40;20374;-66
2022/01/16 08:22:01;;;;;;;60.25;36.47;;;;;;;4.48;81.34;102188.72;3585843;40;20068;-64
2022/01/16 08:24:27;;;;;;;61.20;38.33;;;;;;;4.51;81.01;102178.00;3592374;39;20068;-65
2022/01/16 08:26:52;;;;;;;66.40;37.40;;;;;;;4.53;81.13;102178.84;3591163;40;20382;-65
2022/01/16 08:29:19;;;;;;;60.67;37.38;;;;;;;4.01;81.08;102087.34;3585700;40;20063;-66
2022/01/16 08:31:45;;;;;;;63.15;38.33;;;;;;;4.55;81.10;102180.59;3589808;40;20056;-64
2022/01/16 08:34:11;;;;;;;61.38;36.50;;;;;;;4.56;81.25;102186.78;3584706;40;20060;-64
2022/01/16 08:36:37;;;;;;;63.17;36.30;;;;;;;4.57;80.99;102172.59;3590062;40;20065;-64
2022/01/16 08:39:03;;;;;;;61.03;38.05;;;;;;;4.57;81.21;102177.91;3592942;40;20051;-64
2022/01/16 08:41:29;;;;;;;65.25;38.13;;;;;;;4.59;81.04;102181.41;3591155;39;20063;-64
2022/01/16 08:43:54;;;;;;;63.05;37.58;;;;;;;4.64;81.45;102195.56;3590387;40;20059;-65
2022/01/16 08:46:23;;;;;;;64.15;37.75;;;;;;;4.55;81.18;102169.06;3591707;40;20113;-65
2022/01/16 08:48:52;;;;;;;67.68;38.45;;;;;;;4.67;81.47;102189.31;3593601;40;20043;-66
2022/01/16 08:51:18;;;;;;;64.13;37.47;;;;;;;4.70;81.57;102195.47;3581880;40;20067;-64
2022/01/16 08:53:45;;;;;;;64.13;38.00;;;;;;;4.43;81.13;102155.00;3593522;40;20120;-64
2022/01/16 08:56:14;;;;;;;69.35;38.75;;;;;;;4.32;81.17;102126.81;3622582;22;20039;-62
2022/01/16 08:58:40;;;;;;;66.25;38.15;;;;;;;4.74;81.09;102209.63;3586988;40;20091;-61
2022/01/16 09:01:05;;;;;;;59.75;35.47;;;;;;;4.80;81.19;102217.50;3590630;40;20680;-62
2022/01/16 09:03:31;;;;;;;69.45;38.75;;;;;;;4.79;81.56;102223.72;3589796;40;20056;-62
2022/01/16 09:05:57;;;;;;;65.75;39.13;;;;;;;4.81;81.57;102221.94;3585379;40;20068;-62
2022/01/16 09:08:22;;;;;;;70.28;41.17;;;;;;;4.84;81.52;102224.53;3581190;40;20052;-61
2022/01/16 09:10:48;;;;;;;71.10;39.22;;;;;;;4.86;80.82;102212.97;3580505;40;20063;-63
2022/01/16 09:13:17;;;;;;;72.60;40.33;;;;;;;4.71;81.29;102188.34;3582041;40;20048;-63
2022/01/16 09:15:50;;;;;;;70.50;39.58;;;;;;;4.95;81.43;102221.69;3583134;40;20071;-63
2022/01/16 09:18:18;;;;;;;71.15;41.15;;;;;;;4.97;81.24;102223.44;3579524;40;20057;-62
2022/01/16 09:20:45;;;;;;;69.57;40.17;;;;;;;5.00;80.92;102239.38;3582179;40;20102;-63
2022/01/16 09:23:12;;;;;;;68.60;40.15;;;;;;;5.05;80.94;102242.00;3580014;40;20051;-62
2022/01/16 09:25:39;;;;;;;65.78;40.67;;;;;;;5.03;80.92;102247.31;3581784;40;20316;-63
2022/01/16 09:28:06;;;;;;;74.10;42.35;;;;;;;5.00;80.64;102228.72;3583404;40;20055;-62
2022/01/16 09:30:33;;;;;;;76.65;43.75;;;;;;;5.10;81.03;102248.09;3582391;40;20375;-63
2022/01/16 09:32:59;;;;;;;81.15;43.75;;;;;;;5.12;80.99;102240.97;3581190;40;20415;-63
2022/01/16 09:35:25;;;;;;;79.20;43.70;;;;;;;5.17;80.96;102246.22;3582155;40;20052;-62
2022/01/16 09:37:52;;;;;;;88.05;45.13;;;;;;;5.15;81.05;102251.59;3576582;40;20056;-63
2022/01/16 09:40:21;;;;;;;81.88;43.92;;;;;;;5.17;81.29;102255.13;3578308;40;20049;-63
2022/01/16 09:42:48;;;;;;;85.95;43.70;;;;;;;4.88;81.13;102200.50;3579381;40;20068;-63
2022/01/16 09:45:17;;;;;;;92.35;45.80;;;;;;;5.20;81.44;102255.06;3581221;40;20052;-61
2022/01/16 09:47:45;;;;;;;89.22;46.13;;;;;;;5.24;81.47;102256.78;3582832;40;20387;-62
2022/01/16 09:50:18;;;;;;;88.75;45.17;;;;;;;5.21;81.85;102250.63;3584213;40;20044;-62
2022/01/16 09:52:47;;;;;;;98.57;47.63;;;;;;;5.26;81.79;102268.28;3583228;40;20052;-62
2022/01/16 09:55:13;;;;;;;95.53;47.65;;;;;;;5.29;81.64;102273.56;3572665;40;20045;-62
2022/01/16 09:57:41;;;;;;;88.55;45.22;;;;;;;5.32;81.50;102269.97;3584454;40;20080;-63
2022/01/16 10:00:15;;;;;;;93.95;46.17;;;;;;;5.29;81.72;102273.56;3583677;40;20354;-62
2022/01/16 10:02:41;;;;;;;97.07;47.85;;;;;;;5.30;81.90;102274.47;3581778;40;20044;-62
2022/01/16 10:05:37;;;;;;;98.25;46.67;;;;;;;5.34;81.67;102289.50;3582605;40;20106;-64
2022/01/16 10:08:08;;;;;;;97.45;47.42;;;;;;;5.38;81.71;102288.53;3580334;40;20064;-62
2022/01/16 10:10:43;;;;;;;102.05;46.85;;;;;;;5.41;81.98;102291.13;3580936;40;20080;-63
2022/01/16 10:13:23;;;;;;;101.72;47.65;;;;;;;5.42;82.06;102303.56;3580015;40;20059;-63
2022/01/16 10:15:55;;;;;;;104.53;47.40;;;;;;;5.37;82.11;102286.78;3581701;40;20068;-64
2022/01/16 10:18:40;;;;;;;105.25;47.45;;;;;;;5.48;81.60;102297.25;3581304;40;20142;-63
2022/01/16 10:21:09;;;;;;;105.15;47.03;;;;;;;5.52;81.65;102301.66;3581565;40;20064;-63
2022/01/16 10:23:44;;;;;;;100.57;47.00;;;;;;;5.52;81.47;102310.53;3581308;40;20052;-66
2022/01/16 10:26:22;;;;;;;101.22;46.25;;;;;;;5.55;81.83;102309.56;3580716;40;20056;-66
2022/01/16 10:28:50;;;;;;;93.40;42.88;;;;;;;5.58;82.02;102314.84;3582473;40;20059;-63
2022/01/16 10:31:25;;;;;;;93.45;43.15;;;;;;;5.63;81.25;102314.78;3579073;40;20049;-64
2022/01/16 10:33:53;;;;;;;102.28;45.67;;;;;;;5.68;81.59;102316.47;3581769;40;20056;-63
2022/01/16 10:36:37;;;;;;;95.57;43.67;;;;;;;5.71;81.49;102315.50;3578801;40;20048;-64
2022/01/16 10:39:07;;;;;;;90.47;42.10;;;;;;;5.72;81.51;102312.84;3571483;40;20387;-64
2022/01/16 10:41:33;;;;;;;97.38;42.92;;;;;;;5.76;81.17;102311.84;3579913;40;20064;-66
2022/01/16 10:43:59;;;;;;;98.57;44.45;;;;;;;5.77;80.70;102320.75;3580866;40;20048;-64
2022/01/16 10:46:26;;;;;;;92.88;42.25;;;;;;;5.79;81.38;102319.81;3580841;40;20356;-63
2022/01/16 10:49:16;;;;;;;93.47;41.97;;;;;;;5.81;80.91;102314.47;3579206;40;20055;-64
2022/01/16 10:51:42;;;;;;;86.25;41.92;;;;;;;5.84;80.15;102317.06;3581122;40;20052;-64
2022/01/16 10:54:40;;;;;;;87.47;41.55;;;;;;;5.87;80.31;102317.03;3580429;40;20063;-64
2022/01/16 10:57:27;;;;;;;83.93;39.10;;;;;;;5.97;80.61;102312.44;3579903;40;20048;-62
2022/01/16 11:00:04;;;;;;;82.90;42.22;;;;;;;6.02;80.27;102305.19;3579072;40;20413;-66
2022/01/16 11:02:30;;;;;;;85.72;40.55;;;;;;;6.12;80.70;102320.16;3578469;40;20119;-64
2022/01/16 11:05:19;;;;;;;85.82;40.63;;;;;;;6.12;80.39;102320.16;3581409;40;20060;-64
2022/01/16 11:07:55;;;;;;;88.95;40.75;;;;;;;6.15;80.69;102321.84;3575186;40;20422;-64
2022/01/16 11:10:37;;;;;;;80.38;40.78;;;;;;;6.15;80.41;102328.09;3578005;40;20064;-64
2022/01/16 11:13:16;;;;;;;83.32;40.50;;;;;;;6.11;80.00;102326.38;3580857;40;20379;-63
2022/01/16 11:15:48;;;;;;;78.53;39.58;;;;;;;6.10;79.61;102323.75;3581924;40;20092;-64
2022/01/16 11:18:15;;;;;;;81.97;39.55;;;;;;;6.12;79.82;102337.94;3576708;40;20048;-65
2022/01/16 11:20:51;;;;;;;82.93;38.80;;;;;;;6.04;79.67;102328.28;3578700;40;20052;-63
2022/01/16 11:23:33;;;;;;;79.55;40.05;;;;;;;6.08;80.33;102326.44;3578502;40;20170;-64
2022/01/16 11:26:07;;;;;;;79.60;39.03;;;;;;;6.06;80.04;102325.59;3568028;40;20058;-64
2022/01/16 11:28:34;;;;;;;;;;;;;;;6.04;80.54;102324.75;3581929;40;20314;-63
2022/01/16 11:31:05;;;;;;;81.45;38.85;;;;;;;5.98;80.11;102309.72;3582853;40;19934;-63
2022/01/16 11:33:34;;;;;;;82.03;41.10;;;;;;;6.09;79.81;102328.22;3579726;40;20296;-64
2022/01/16 11:36:08;;;;;;;82.10;40.97;;;;;;;6.06;79.82;102328.28;3584293;40;20117;-63
2022/01/16 11:38:58;;;;;;;75.28;38.63;;;;;;;6.02;79.85;102323.88;3583542;40;20311;-66
2022/01/16 11:41:34;;;;;;;86.05;41.58;;;;;;;6.03;79.85;102336.34;3581532;40;20067;-63
2022/01/16 11:44:06;;;;;;;78.53;40.38;;;;;;;6.00;79.77;102326.59;3581558;40;20049;-63
2022/01/16 11:46:39;;;;;;;82.70;39.60;;;;;;;5.60;80.21;102267.69;3581111;40;20092;-65
2022/01/16 11:49:13;;;;;;;84.28;40.50;;;;;;;5.98;80.41;102319.50;3579856;40;20063;-65
2022/01/16 11:51:43;;;;;;;79.32;39.38;;;;;;;5.97;80.70;102323.09;3581923;40;20288;-65
2022/01/16 11:54:20;;;;;;;80.47;39.75;;;;;;;5.95;80.42;102327.56;3581681;40;20366;-64
2022/01/16 11:56:46;;;;;;;81.47;40.65;;;;;;;5.98;80.58;102319.50;3582174;40;20048;-63
2022/01/16 11:59:26;;;;;;;87.57;40.88;;;;;;;5.95;80.98;102324.91;3581209;40;20044;-63
2022/01/16 12:02:20;;;;;;;79.03;37.42;;;;;;;5.92;80.36;102320.47;3581280;40;20365;-65
2022/01/16 12:04:46;;;;;;;73.53;36.85;;;;;;;5.91;80.30;102328.53;3577791;40;20057;-64
2022/01/16 12:07:17;;;;;;;116.45;60.53;;;;;;;5.92;80.30;102325.81;3581017;40;20058;-63